createdAt,value
2018-12-19T00:00:30.046Z,13.93
2018-12-19T00:02:57.747Z,14.97
2018-12-19T00:05:25.216Z,14.07
2018-12-19T00:25:14.735Z,14.27
2018-12-19T00:27:42.461Z,15.03
2018-12-19T00:30:09.927Z,15.00
2018-12-19T00:32:37.528Z,13.97
2018-12-19T00:35:05.161Z,14.27
2018-12-19T00:37:32.640Z,15.07
2018-12-19T00:40:00.319Z,13.50
2018-12-19T00:42:27.790Z,14.03
2018-12-19T00:44:55.261Z,14.27
2018-12-19T00:47:23.009Z,14.33
2018-12-19T01:07:12.231Z,13.70
2018-12-19T01:09:40.857Z,14.47
2018-12-19T01:29:29.222Z,12.50
2018-12-19T01:31:56.981Z,13.97
2018-12-19T01:34:24.440Z,12.87
2018-12-19T01:36:51.910Z,13.43
2018-12-19T01:56:41.016Z,13.23
2018-12-19T01:59:08.478Z,12.67
2018-12-19T02:01:35.957Z,13.33
2018-12-19T02:04:03.442Z,13.60
2018-12-19T02:06:30.905Z,12.90
2018-12-19T02:08:58.868Z,12.20
2018-12-19T02:11:26.502Z,12.50
2018-12-19T02:13:53.963Z,13.03
2018-12-19T02:33:43.175Z,15.87
2018-12-19T02:53:32.782Z,18.83
2018-12-19T02:56:00.567Z,18.23
2018-12-19T02:58:28.025Z,19.17
2018-12-19T03:00:55.496Z,18.83
2018-12-19T03:03:22.994Z,17.50
2018-12-19T03:05:50.454Z,18.70
2018-12-19T03:08:17.930Z,19.13
2018-12-19T03:10:45.957Z,18.20
2018-12-19T03:13:13.422Z,18.40
2018-12-19T03:33:02.533Z,18.37
2018-12-19T03:35:30.099Z,19.53
2018-12-19T03:37:57.565Z,19.87
2018-12-19T03:40:25.533Z,21.37
2018-12-19T03:42:53.003Z,20.27
2018-12-19T03:45:20.483Z,20.50
2018-12-19T03:47:48.114Z,23.47
2018-12-19T03:50:15.846Z,21.73
2018-12-19T03:52:43.347Z,21.07
2018-12-19T03:55:11.119Z,22.97
2018-12-19T03:57:38.659Z,21.50
2018-12-19T04:00:07.167Z,21.17
2018-12-19T04:02:34.839Z,23.07
2018-12-19T04:05:02.302Z,23.37
2018-12-19T04:07:29.761Z,22.57
2018-12-19T04:09:57.861Z,22.17
2018-12-19T04:12:25.941Z,21.93
2018-12-19T04:14:53.398Z,21.30
2018-12-19T04:17:20.884Z,21.10
2018-12-19T04:19:48.358Z,20.30
2018-12-19T04:22:15.823Z,20.83
2018-12-19T04:24:43.422Z,20.33
2018-12-19T04:27:10.890Z,21.87
2018-12-19T04:29:38.722Z,20.13
2018-12-19T04:32:06.333Z,21.27
2018-12-19T04:34:33.890Z,19.97
2018-12-19T04:37:01.368Z,20.27
2018-12-19T04:39:29.122Z,20.20
2018-12-19T04:59:18.223Z,20.13
2018-12-19T05:19:07.579Z,17.63
2018-12-19T05:21:35.046Z,17.40
2018-12-19T05:24:02.521Z,17.77
2018-12-19T05:43:51.690Z,17.53
2018-12-19T05:46:19.154Z,18.73
2018-12-19T05:48:46.622Z,17.33
2018-12-19T05:51:14.374Z,18.00
2018-12-19T06:11:03.185Z,19.27
2018-12-19T06:13:30.972Z,18.47
2018-12-19T06:15:59.318Z,19.03
2018-12-19T06:35:47.769Z,19.33
2018-12-19T06:55:36.224Z,19.17
2018-12-19T06:58:03.987Z,20.20
2018-12-19T07:00:31.458Z,20.13
2018-12-19T07:02:58.939Z,19.63
2018-12-19T07:05:26.536Z,19.10
2018-12-19T07:25:15.276Z,20.00
2018-12-19T07:27:42.786Z,20.67
2018-12-19T07:30:10.329Z,19.57
2018-12-19T07:32:37.907Z,19.37
2018-12-19T07:35:05.529Z,19.53
2018-12-19T07:37:32.993Z,20.20
2018-12-19T07:40:00.466Z,20.03
2018-12-19T07:42:28.231Z,20.60
2018-12-19T07:44:55.716Z,18.73
2018-12-19T07:47:23.181Z,20.50
2018-12-19T07:49:50.684Z,19.93
2018-12-19T07:52:18.150Z,19.07
2018-12-19T07:54:45.613Z,19.67
2018-12-19T07:57:13.414Z,19.23
2018-12-19T07:59:40.879Z,19.93
2018-12-19T08:02:08.354Z,19.37
2018-12-19T08:21:58.130Z,20.97
2018-12-19T08:24:25.592Z,19.40
2018-12-19T08:26:53.057Z,19.60
2018-12-19T08:29:20.865Z,19.63
2018-12-19T08:49:09.442Z,19.87
2018-12-19T08:51:36.941Z,20.90
2018-12-19T08:54:04.477Z,20.07
2018-12-19T08:56:31.942Z,20.40
2018-12-19T08:58:59.421Z,19.70
2018-12-19T09:01:26.890Z,19.40
2018-12-19T09:03:54.422Z,19.83
2018-12-19T09:06:21.917Z,20.70
2018-12-19T09:08:49.391Z,20.57
2018-12-19T09:11:17.526Z,19.10
2018-12-19T09:13:45.237Z,20.70
2018-12-19T09:16:12.706Z,19.27
2018-12-19T09:36:01.669Z,19.47
2018-12-19T09:38:29.134Z,19.67
2018-12-19T09:40:56.600Z,19.87
2018-12-19T09:43:24.100Z,19.73
2018-12-19T10:03:12.366Z,19.63
2018-12-19T10:05:40.130Z,20.30
2018-12-19T10:08:07.586Z,19.50
2018-12-19T10:10:35.050Z,19.63
2018-12-19T10:13:02.767Z,19.70
2018-12-19T10:15:30.235Z,19.40
2018-12-19T10:17:57.733Z,20.47
2018-12-19T10:20:25.402Z,19.17
2018-12-19T10:22:54.541Z,20.07
2018-12-19T10:25:22.433Z,19.90
2018-12-19T10:27:50.147Z,20.00
2018-12-19T10:30:17.609Z,20.30
2018-12-19T10:32:47.051Z,20.73
2018-12-19T10:35:14.786Z,20.43
2018-12-19T10:37:42.255Z,20.67
2018-12-19T10:40:09.798Z,20.90
2018-12-19T10:42:37.306Z,21.63
2018-12-19T10:45:06.514Z,20.33
2018-12-19T10:47:33.974Z,21.27
2018-12-19T10:50:01.810Z,22.93
2018-12-19T10:52:29.274Z,22.77
2018-12-19T10:54:56.734Z,26.90
2018-12-19T10:57:24.406Z,23.23
2018-12-19T10:59:51.866Z,26.13
2018-12-19T11:02:19.325Z,20.93
2018-12-19T11:04:46.832Z,26.10
2018-12-19T11:24:35.898Z,23.20
2018-12-19T11:27:03.663Z,22.80
2018-12-19T11:29:31.136Z,23.07
2018-12-19T11:31:58.602Z,22.70
2018-12-19T11:34:26.085Z,22.60
2018-12-19T11:36:53.556Z,22.20
2018-12-19T11:39:21.415Z,24.07
2018-12-19T11:41:48.934Z,25.20
2018-12-19T11:44:16.394Z,23.43
2018-12-19T11:46:43.860Z,23.70
2018-12-19T11:49:11.637Z,25.47
2018-12-19T11:51:39.102Z,24.60
2018-12-19T11:54:06.578Z,24.90
2018-12-19T12:13:55.406Z,23.50
2018-12-19T12:16:22.878Z,24.50
2018-12-19T12:36:11.614Z,24.47
2018-12-19T12:38:39.073Z,25.13
2018-12-19T12:41:06.965Z,27.80
2018-12-19T12:43:34.737Z,27.23
2018-12-19T13:03:23.973Z,25.03
2018-12-19T13:24:44.130Z,27.07
2018-12-19T13:27:11.661Z,25.30
2018-12-19T13:29:39.126Z,25.47
2018-12-19T13:32:07.277Z,25.70
2018-12-19T13:34:34.750Z,25.47
2018-12-19T13:37:02.206Z,24.97
2018-12-19T13:39:29.725Z,25.43
2018-12-19T13:41:57.187Z,26.43
2018-12-19T13:44:24.658Z,25.23
2018-12-19T14:04:14.378Z,27.17
2018-12-19T14:06:41.838Z,26.67
2018-12-19T14:09:09.442Z,26.60
2018-12-19T14:11:36.931Z,26.67
2018-12-19T14:14:04.389Z,26.27
2018-12-19T14:33:53.111Z,26.60
2018-12-19T14:36:20.577Z,27.63
2018-12-19T14:38:48.041Z,28.07
2018-12-19T14:41:15.542Z,27.77
2018-12-19T14:43:43.005Z,29.37
2018-12-19T14:46:10.571Z,29.27
2018-12-19T14:48:38.073Z,29.93
2018-12-19T14:51:05.606Z,27.47
2018-12-19T14:53:33.069Z,29.37
2018-12-19T14:56:00.898Z,29.47
2018-12-19T14:58:28.406Z,27.70
2018-12-19T15:00:55.869Z,28.07
2018-12-19T15:03:23.690Z,28.30
2018-12-19T15:05:51.184Z,28.53
2018-12-19T15:08:18.890Z,28.27
2018-12-19T15:10:46.391Z,28.30
2018-12-19T15:13:13.849Z,28.07
2018-12-19T15:15:43.289Z,27.37
2018-12-19T15:18:10.786Z,28.73
2018-12-19T15:20:38.250Z,29.60
2018-12-19T15:23:05.722Z,27.67
2018-12-19T15:25:33.222Z,29.27
2018-12-19T15:28:00.690Z,29.53
2018-12-19T15:30:28.155Z,29.07
2018-12-19T15:32:55.924Z,29.30
2018-12-19T15:35:23.397Z,27.40
2018-12-19T15:37:50.858Z,28.20
2018-12-19T15:40:18.358Z,28.27
2018-12-19T15:42:45.822Z,29.30
2018-12-19T15:45:13.294Z,29.03
2018-12-19T16:05:02.250Z,25.73
2018-12-19T16:07:29.716Z,26.33
2018-12-19T16:09:57.177Z,25.73
2018-12-19T16:12:24.673Z,25.83
2018-12-19T16:14:52.157Z,26.53
2018-12-19T16:17:19.623Z,25.03
2018-12-19T16:19:47.116Z,24.77
2018-12-19T16:39:36.223Z,24.00
2018-12-19T16:42:03.801Z,23.83
2018-12-19T16:44:31.271Z,24.43
2018-12-19T16:46:58.738Z,25.33
2018-12-19T17:06:47.518Z,28.07
2018-12-19T17:26:37.218Z,25.07
2018-12-19T17:29:04.721Z,26.47
2018-12-19T17:31:32.534Z,25.73
2018-12-19T17:33:59.994Z,25.47
2018-12-19T17:36:27.771Z,27.33
2018-12-19T17:38:55.225Z,26.90
2018-12-19T17:41:22.684Z,26.43
2018-12-19T17:43:50.181Z,26.13
2018-12-19T17:46:17.650Z,25.50
2018-12-19T17:48:45.123Z,27.23
2018-12-19T17:51:12.633Z,28.00
2018-12-19T17:53:40.206Z,25.33
2018-12-19T17:56:07.671Z,24.83
2018-12-19T17:58:35.165Z,23.93
2018-12-19T18:01:02.629Z,24.00
2018-12-19T18:03:30.102Z,23.43
2018-12-19T18:05:57.602Z,22.33
2018-12-19T18:08:25.066Z,20.03
2018-12-19T18:10:52.536Z,20.93
2018-12-19T18:13:20.823Z,20.27
2018-12-19T18:33:09.634Z,17.73
2018-12-19T18:35:37.132Z,18.97
2018-12-19T18:38:04.607Z,17.47
2018-12-19T18:40:32.069Z,17.17
2018-12-19T18:42:59.568Z,17.40
2018-12-19T18:45:27.029Z,18.27
2018-12-19T18:47:54.492Z,18.57
2018-12-19T18:50:21.993Z,19.53
2018-12-19T18:52:49.464Z,17.87
2018-12-19T18:55:16.939Z,17.23
2018-12-19T18:57:44.433Z,18.03
2018-12-19T19:00:11.927Z,17.27
2018-12-19T19:20:00.789Z,17.83
2018-12-19T19:22:28.253Z,17.80
2018-12-19T19:24:55.728Z,18.53
2018-12-19T19:27:23.427Z,18.23
2018-12-19T19:29:51.138Z,19.77
2018-12-19T19:32:18.822Z,19.47
2018-12-19T19:34:46.734Z,19.37
2018-12-19T19:37:14.189Z,20.07
2018-12-19T19:39:41.726Z,20.30
2018-12-19T19:42:09.357Z,22.90
2018-12-19T19:44:36.921Z,17.93
2018-12-19T19:47:04.528Z,17.93
2018-12-19T19:49:35.391Z,18.93
2018-12-19T19:52:03.559Z,19.57
2018-12-19T19:54:31.172Z,16.57
2018-12-19T20:14:20.079Z,19.77
2018-12-19T20:16:53.169Z,20.47
2018-12-19T20:19:20.671Z,19.40
2018-12-19T20:21:48.139Z,20.10
2018-12-19T20:24:15.606Z,19.57
2018-12-19T20:26:43.106Z,19.70
2018-12-19T20:29:10.566Z,18.30
2018-12-19T20:48:59.488Z,16.90
2018-12-19T20:51:27.026Z,17.20
2018-12-19T20:53:54.494Z,17.67
2018-12-19T20:56:22.101Z,17.87
2018-12-19T20:58:49.675Z,17.83
2018-12-19T21:18:42.266Z,17.00
2018-12-19T21:21:09.726Z,18.67
2018-12-19T21:23:37.265Z,16.40
2018-12-19T21:43:26.118Z,18.47
2018-12-19T21:45:53.657Z,17.77
2018-12-19T21:48:21.187Z,17.77
2018-12-19T22:08:09.917Z,15.87
2018-12-19T22:10:37.551Z,15.10
2018-12-19T22:13:05.060Z,17.20
2018-12-19T22:15:32.646Z,16.43
2018-12-19T22:18:05.853Z,16.33
2018-12-19T22:37:55.093Z,16.47
2018-12-19T22:40:22.769Z,17.00
2018-12-19T22:42:50.278Z,16.00
2018-12-19T22:45:17.833Z,16.03
2018-12-19T23:05:06.337Z,16.77
2018-12-19T23:07:34.054Z,16.27
2018-12-19T23:27:23.099Z,16.10
2018-12-19T23:47:11.852Z,16.30
2018-12-19T23:49:39.344Z,16.13
2018-12-19T23:52:06.913Z,16.53
2018-12-19T23:54:34.513Z,16.33
2018-12-19T23:57:01.978Z,17.20
2018-12-19T23:59:29.451Z,18.67
